sensor_id;sensor_type;location;lat;lon;timestamp;temperature;humidity
44447;DHT22;30152;52.066;5.358;2022-08-19T12:02:23;24.70;99.90
44447;DHT22;30152;52.066;5.358;2022-08-19T12:04:49;24.00;99.90
44447;DHT22;30152;52.066;5.358;2022-08-19T12:07:15;23.70;99.90
44447;DHT22;30152;52.066;5.358;2022-08-19T12:12:06;23.90;99.90
44447;DHT22;30152;52.066;5.358;2022-08-19T12:14:32;23.60;99.90
44447;DHT22;30152;52.066;5.358;2022-08-19T12:19:24;23.70;99.90
44447;DHT22;30152;52.066;5.358;2022-08-19T12:21:51;23.60;99.90
44447;DHT22;30152;52.066;5.358;2022-08-19T12:24:18;24.10;99.90
44447;DHT22;30152;52.066;5.358;2022-08-19T12:26:48;23.80;99.90
44447;DHT22;30152;52.066;5.358;2022-08-19T12:29:14;23.60;99.90
44447;DHT22;30152;52.066;5.358;2022-08-19T12:31:40;23.70;99.90
44447;DHT22;30152;52.066;5.358;2022-08-19T12:34:05;23.80;99.90
44447;DHT22;30152;52.066;5.358;2022-08-19T12:36:31;24.00;99.90
44447;DHT22;30152;52.066;5.358;2022-08-19T12:38:58;23.80;99.90
44447;DHT22;30152;52.066;5.358;2022-08-19T12:46:18;24.70;99.90
44447;DHT22;30152;52.066;5.358;2022-08-19T12:48:44;24.00;99.90
44447;DHT22;30152;52.066;5.358;2022-08-19T12:51:17;23.60;99.90
44447;DHT22;30152;52.066;5.358;2022-08-19T12:53:45;23.60;99.90
44447;DHT22;30152;52.066;5.358;2022-08-19T12:56:11;23.60;99.90
44447;DHT22;30152;52.066;5.358;2022-08-19T12:58:39;23.40;99.90
44447;DHT22;30152;52.066;5.358;2022-08-19T13:01:11;23.90;99.90
44447;DHT22;30152;52.066;5.358;2022-08-19T13:03:38;23.60;99.90
44447;DHT22;30152;52.066;5.358;2022-08-19T13:06:04;23.80;99.90
44447;DHT22;30152;52.066;5.358;2022-08-19T13:10:55;23.80;99.90
44447;DHT22;30152;52.066;5.358;2022-08-19T13:13:21;23.80;99.90
44447;DHT22;30152;52.066;5.358;2022-08-19T13:18:13;23.90;99.90
44447;DHT22;30152;52.066;5.358;2022-08-19T13:20:40;23.30;99.90
44447;DHT22;30152;52.066;5.358;2022-08-19T13:23:07;24.00;99.90
44447;DHT22;30152;52.066;5.358;2022-08-19T13:25:33;23.10;99.90
44447;DHT22;30152;52.066;5.358;2022-08-19T13:27:59;23.20;99.90
44447;DHT22;30152;52.066;5.358;2022-08-19T13:30:25;23.00;99.90
44447;DHT22;30152;52.066;5.358;2022-08-19T13:35:51;23.30;99.90
44447;DHT22;30152;52.066;5.358;2022-08-19T13:38:22;23.00;99.90
44447;DHT22;30152;52.066;5.358;2022-08-19T13:40:49;22.90;99.90
44447;DHT22;30152;52.066;5.358;2022-08-19T13:43:16;23.00;99.90
44447;DHT22;30152;52.066;5.358;2022-08-19T13:45:43;22.80;99.90
44447;DHT22;30152;52.066;5.358;2022-08-19T13:48:08;22.60;99.90
44447;DHT22;30152;52.066;5.358;2022-08-19T13:50:40;22.70;99.90
44447;DHT22;30152;52.066;5.358;2022-08-19T13:53:07;22.50;99.90
44447;DHT22;30152;52.066;5.358;2022-08-19T13:55:34;22.50;99.90
44447;DHT22;30152;52.066;5.358;2022-08-19T13:58:02;21.60;99.90
44447;DHT22;30152;52.066;5.358;2022-08-19T14:00:33;21.90;99.90
44447;DHT22;30152;52.066;5.358;2022-08-19T14:05:26;20.80;99.90
44447;DHT22;30152;52.066;5.358;2022-08-19T14:07:52;21.00;99.90
44447;DHT22;30152;52.066;5.358;2022-08-19T14:10:18;20.50;99.90
44447;DHT22;30152;52.066;5.358;2022-08-19T14:12:45;20.60;99.90
44447;DHT22;30152;52.066;5.358;2022-08-19T14:15:11;20.80;99.90
44447;DHT22;30152;52.066;5.358;2022-08-19T14:17:42;20.60;99.90
44447;DHT22;30152;52.066;5.358;2022-08-19T14:20:10;21.60;99.90
44447;DHT22;30152;52.066;5.358;2022-08-19T14:22:37;20.50;99.90
44447;DHT22;30152;52.066;5.358;2022-08-19T14:25:05;20.90;99.90
44447;DHT22;30152;52.066;5.358;2022-08-19T14:27:36;21.40;99.90
44447;DHT22;30152;52.066;5.358;2022-08-19T14:30:04;20.60;99.90
44447;DHT22;30152;52.066;5.358;2022-08-19T14:32:32;20.50;99.90
